Wetterdaten: Sonntag, 30.06.2019
Datum Zeit Temp. A. Pool Temp. Temp. 5cm Feuchte A. Luftdruck Regen Wind Richtung Richtung Sonnenschein ET UV Solar Taupunkt Windchill Windben Empfang
01.01.2019 12:00 4,9 C 4,0 C 4,5 C 90 % 1025,6 hPa 3,0 l/m 21,4 km/h (4 Bft) W-SW 248 0,00 min 0,610 mm 0,0 UV-I 41 W/m 3,4 C -3,5 C 32,7 km/h (5 Bft) 97,13 %
02.01.2019 12:00 1,0 C 4,0 C 0,5 C 84 % 1023,4 hPa 3,2 l/m 17,1 km/h (3 Bft) W 270 2,88 min 0,864 mm 0,4 UV-I 115 W/m -1,4 C -6,6 C 28,5 km/h (4 Bft) 97,15 %
03.01.2019 12:00 -1,6 C 3,9 C -2,1 C 81 % 1031,7 hPa 0,0 l/m 15,6 km/h (3 Bft) W 270 0,57 min 0,686 mm 0,0 UV-I 61 W/m -4,6 C -8,9 C 25,4 km/h (4 Bft) 97,12 %
04.01.2019 12:00 -2,0 C 3,9 C -2,2 C 92 % 1032,0 hPa 4,0 l/m 13,0 km/h (3 Bft) W 270 0,53 min 0,203 mm 0,0 UV-I 50 W/m -3,1 C -7,4 C 19,7 km/h (3 Bft) 96,94 %
05.01.2019 12:00 0,6 C 3,9 C -0,1 C 95 % 1023,3 hPa 9,6 l/m 21,9 km/h (4 Bft) W 270 0,00 min 0,178 mm 0,0 UV-I 42 W/m -0,1 C -9,6 C 33,0 km/h (5 Bft) 96,98 %
06.01.2019 12:00 1,7 C 3,9 C 1,2 C 92 % 1025,4 hPa 1,2 l/m 13,4 km/h (3 Bft) W 270 0,20 min 0,254 mm 0,5 UV-I 68 W/m 0,5 C -3,7 C 20,3 km/h (4 Bft) 97,09 %
07.01.2019 12:00 1,9 C 3,9 C 1,4 C 95 % 1028,4 hPa 3,2 l/m 12,8 km/h (3 Bft) W-SW 248 0,00 min 0,152 mm 0,0 UV-I 34 W/m 1,2 C -3,2 C 19,1 km/h (3 Bft) 97,15 %
08.01.2019 12:00 2,3 C 3,9 C 1,7 C 92 % 1013,8 hPa 13,4 l/m 19,2 km/h (3 Bft) W-SW 248 0,00 min 0,483 mm 0,0 UV-I 34 W/m 1,1 C -5,8 C 29,4 km/h (5 Bft) 97,19 %
09.01.2019 12:00 0,7 C 3,7 C 0,3 C 93 % 1006,9 hPa 4,8 l/m 19,4 km/h (3 Bft) W 270 0,00 min 0,356 mm 0,0 UV-I 48 W/m -0,3 C -8,2 C 29,7 km/h (5 Bft) 97,12 %
10.01.2019 12:00 -0,3 C 3,3 C -0,3 C 93 % 1016,9 hPa 1,8 l/m 7,4 km/h (2 Bft) W 270 0,00 min 0,229 mm 0,0 UV-I 71 W/m -1,3 C -2,3 C 11,9 km/h (2 Bft) 97,10 %
11.01.2019 12:00 -2,1 C 3,6 C -2,3 C 88 % 1023,3 hPa 1,6 l/m 12,7 km/h (3 Bft) W 270 4,13 min 0,584 mm 0,5 UV-I 145 W/m -3,9 C -7,7 C 19,3 km/h (3 Bft) 96,67 %
12.01.2019 12:00 1,6 C 3,9 C 0,7 C 91 % 1018,9 hPa 3,8 l/m 18,9 km/h (3 Bft) W-SW 248 0,07 min 0,508 mm 0,0 UV-I 50 W/m 0,3 C -6,8 C 28,4 km/h (4 Bft) 97,00 %
13.01.2019 12:00 2,7 C 3,7 C 2,3 C 94 % 1006,4 hPa 14,4 l/m 19,6 km/h (3 Bft) W-SW 248 0,00 min 0,305 mm 0,0 UV-I 42 W/m 1,9 C -5,4 C 29,6 km/h (5 Bft) 95,54 %
14.01.2019 12:00 3,4 C 3,3 C 2,5 C 85 % 1004,8 hPa 1,2 l/m 18,9 km/h (3 Bft) W 270 0,30 min 0,787 mm 0,0 UV-I 59 W/m 1,1 C -4,3 C 30,0 km/h (5 Bft) 97,25 %
15.01.2019 12:00 2,1 C 3,3 C 1,7 C 77 % 1018,0 hPa 0,0 l/m 21,1 km/h (4 Bft) W 270 0,00 min 1,092 mm 0,0 UV-I 56 W/m -1,5 C -7,1 C 32,7 km/h (5 Bft) 96,95 %
16.01.2019 12:00 3,0 C 3,3 C 1,8 C 77 % 1014,7 hPa 0,0 l/m 11,0 km/h (2 Bft) W-SW 248 8,03 min 1,295 mm 0,6 UV-I 196 W/m -0,8 C -1,1 C 17,0 km/h (3 Bft) 96,96 %
17.01.2019 12:00 4,0 C 3,5 C 2,4 C 78 % 1008,6 hPa 0,6 l/m 9,1 km/h (2 Bft) SW 225 7,03 min 1,143 mm 0,6 UV-I 176 W/m 0,3 C 1,3 C 14,1 km/h (3 Bft) 96,75 %
18.01.2019 12:00 0,5 C 3,6 C -0,7 C 83 % 1016,8 hPa 0,4 l/m 11,6 km/h (2 Bft) W-SW 248 3,77 min 0,889 mm 0,5 UV-I 144 W/m -2,0 C -4,0 C 17,5 km/h (3 Bft) 97,52 %
19.01.2019 12:00 -2,9 C 3,8 C -3,7 C 86 % 1017,3 hPa 0,0 l/m 14,0 km/h (3 Bft) O-NO 68 6,62 min 0,787 mm 0,5 UV-I 151 W/m -5,0 C -9,6 C 19,5 km/h (3 Bft) 97,21 %
20.01.2019 12:00 -4,1 C 3,9 C -3,9 C 90 % 1016,8 hPa 0,0 l/m 4,4 km/h (1 Bft) O 90 0,23 min 0,203 mm 0,0 UV-I 72 W/m -5,4 C -4,7 C 7,0 km/h (2 Bft) 96,87 %
21.01.2019 12:00 -3,7 C 3,7 C -4,9 C 87 % 1020,4 hPa 0,0 l/m 4,3 km/h (1 Bft) O-NO 68 5,47 min 0,559 mm 0,6 UV-I 172 W/m -5,6 C -4,4 C 6,5 km/h (2 Bft) 97,21 %
22.01.2019 12:00 -5,3 C 3,4 C -5,5 C 92 % 1012,8 hPa 0,0 l/m 6,1 km/h (2 Bft) O-NO 68 0,00 min 0,127 mm 0,0 UV-I 42 W/m -6,4 C -7,4 C 9,0 km/h (2 Bft) 97,27 %
23.01.2019 12:00 -5,0 C 3,3 C -4,4 C 92 % 1000,4 hPa 1,6 l/m 14,6 km/h (3 Bft) O 90 2,27 min 0,305 mm 0,5 UV-I 101 W/m -6,1 C -12,5 C 20,4 km/h (4 Bft) 97,26 %
24.01.2019 12:00 -3,3 C 3,3 C -2,9 C 91 % 1008,1 hPa 0,4 l/m 4,8 km/h (1 Bft) W-SW 248 0,00 min 0,254 mm 0,0 UV-I 80 W/m -4,6 C -3,9 C 7,6 km/h (2 Bft) 97,23 %
25.01.2019 12:00 -3,2 C 3,3 C -3,3 C 83 % 1015,8 hPa 0,0 l/m 10,3 km/h (2 Bft) W 270 2,37 min 0,635 mm 0,5 UV-I 130 W/m -5,7 C -7,1 C 15,7 km/h (3 Bft) 97,30 %
26.01.2019 12:00 0,1 C 3,3 C -0,6 C 87 % 1011,3 hPa 4,6 l/m 13,3 km/h (3 Bft) W-SW 248 0,03 min 0,508 mm 0,0 UV-I 58 W/m -1,8 C -5,5 C 19,6 km/h (3 Bft) 97,26 %
27.01.2019 12:00 2,2 C 3,3 C 1,6 C 90 % 997,4 hPa 0,2 l/m 4,6 km/h (1 Bft) O-NO 68 1,87 min 0,559 mm 0,6 UV-I 124 W/m 0,7 C 1,7 C 7,1 km/h (2 Bft) 97,15 %
28.01.2019 12:00 2,0 C 3,3 C 1,4 C 83 % 997,6 hPa 5,0 l/m 13,3 km/h (3 Bft) W-SW 248 1,10 min 0,787 mm 0,4 UV-I 101 W/m -0,7 C -3,2 C 20,3 km/h (4 Bft) 97,01 %
29.01.2019 12:00 0,3 C 3,3 C -0,6 C 86 % 1005,9 hPa 0,2 l/m 12,0 km/h (2 Bft) W-SW 248 4,50 min 0,762 mm 0,5 UV-I 139 W/m -1,8 C -4,4 C 18,4 km/h (3 Bft) 97,14 %
30.01.2019 12:00 -1,2 C 3,3 C -1,6 C 86 % 999,1 hPa 0,0 l/m 5,4 km/h (1 Bft) O-NO 68 6,97 min 0,686 mm 0,6 UV-I 190 W/m -3,3 C -2,4 C 8,2 km/h (2 Bft) 96,90 %
31.01.2019 12:00 -1,1 C 3,3 C -2,0 C 89 % 1000,2 hPa 0,0 l/m 6,6 km/h (2 Bft) O 90 7,70 min 0,737 mm 0,5 UV-I 193 W/m -2,7 C -2,9 C 9,8 km/h (2 Bft) 97,14 %
01.02.2019 12:00 -0,4 C 3,3 C -0,6 C 90 % 993,8 hPa 0,0 l/m 11,1 km/h (2 Bft) O-NO 68 3,23 min 0,635 mm 0,6 UV-I 145 W/m -1,9 C -4,6 C 16,0 km/h (3 Bft) 96,97 %
02.02.2019 12:00 2,2 C 3,3 C 2,0 C 88 % 996,2 hPa 2,6 l/m 4,6 km/h (1 Bft) W-SW 248 3,53 min 0,559 mm 0,6 UV-I 139 W/m 0,3 C 1,4 C 7,3 km/h (2 Bft) 96,89 %
03.02.2019 12:00 1,2 C 3,3 C 1,0 C 94 % 1008,4 hPa 12,4 l/m 13,1 km/h (3 Bft) W 270 0,37 min 0,406 mm 0,5 UV-I 79 W/m 0,3 C -4,2 C 19,8 km/h (3 Bft) 96,90 %
04.02.2019 12:00 -0,8 C 3,4 C -2,2 C 89 % 1029,1 hPa 0,8 l/m 6,3 km/h (2 Bft) W-SW 248 6,43 min 0,787 mm 0,8 UV-I 214 W/m -2,4 C -2,4 C 9,7 km/h (2 Bft) 96,90 %
05.02.2019 12:00 -4,7 C 3,8 C -4,5 C 95 % 1030,5 hPa 0,0 l/m 4,0 km/h (1 Bft) W 270 3,80 min 0,457 mm 0,6 UV-I 148 W/m -5,4 C -4,8 C 6,5 km/h (2 Bft) 96,89 %
06.02.2019 12:00 -4,0 C 3,7 C -3,1 C 96 % 1029,6 hPa 0,0 l/m 3,9 km/h (1 Bft) O 90 0,03 min 0,254 mm 0,5 UV-I 87 W/m -4,6 C -4,3 C 6,4 km/h (2 Bft) 96,81 %
07.02.2019 12:00 -3,0 C 3,7 C -1,9 C 95 % 1020,0 hPa 0,0 l/m 3,3 km/h (1 Bft) O 90 0,60 min 0,356 mm 0,6 UV-I 115 W/m -3,7 C -3,2 C 5,7 km/h (1 Bft) 96,86 %
08.02.2019 12:00 2,1 C 3,8 C 1,0 C 93 % 1020,8 hPa 2,6 l/m 4,5 km/h (1 Bft) O 90 6,97 min 0,838 mm 0,7 UV-I 215 W/m 1,0 C 1,6 C 6,8 km/h (2 Bft) 96,91 %
09.02.2019 12:00 2,9 C 3,9 C 1,8 C 86 % 1015,7 hPa 0,0 l/m 5,8 km/h (2 Bft) SW 225 1,50 min 0,813 mm 0,6 UV-I 129 W/m 0,6 C 1,8 C 9,0 km/h (2 Bft) 96,69 %
10.02.2019 12:00 3,2 C 3,9 C 2,9 C 87 % 1007,5 hPa 2,0 l/m 7,4 km/h (2 Bft) O-NO 68 5,40 min 1,016 mm 0,7 UV-I 199 W/m 1,1 C 1,3 C 11,2 km/h (2 Bft) 97,02 %
11.02.2019 12:00 3,3 C 3,9 C 2,7 C 83 % 1012,9 hPa 1,2 l/m 21,4 km/h (4 Bft) W 270 0,00 min 0,991 mm 0,0 UV-I 55 W/m 0,7 C -5,8 C 33,4 km/h (5 Bft) 97,14 %
12.02.2019 12:00 1,7 C 3,9 C 1,5 C 81 % 1030,2 hPa 0,8 l/m 18,5 km/h (3 Bft) W 270 0,03 min 0,965 mm 0,5 UV-I 99 W/m -1,2 C -6,5 C 28,7 km/h (4 Bft) 96,98 %
13.02.2019 12:00 2,7 C 3,9 C 2,0 C 76 % 1037,0 hPa 0,0 l/m 9,9 km/h (2 Bft) W 270 5,77 min 1,372 mm 0,9 UV-I 203 W/m -1,2 C -0,4 C 14,9 km/h (3 Bft) 96,94 %
14.02.2019 12:00 2,3 C 4,2 C 1,6 C 81 % 1037,1 hPa 0,0 l/m 4,5 km/h (1 Bft) S-SW 202 7,60 min 1,092 mm 0,9 UV-I 239 W/m -0,8 C 2,2 C 6,7 km/h (2 Bft) 97,09 %
15.02.2019 12:00 2,9 C 4,4 C 1,0 C 81 % 1034,9 hPa 0,0 l/m 3,3 km/h (1 Bft) S-SW 202 9,40 min 1,295 mm 0,9 UV-I 271 W/m -0,3 C 2,8 C 4,8 km/h (1 Bft) 96,92 %
16.02.2019 12:00 2,0 C 4,4 C -0,1 C 82 % 1030,6 hPa 0,2 l/m 2,5 km/h (1 Bft) S-SW 202 9,12 min 1,245 mm 1,0 UV-I 257 W/m -1,0 C 2,0 C 3,7 km/h (1 Bft) 96,07 %
17.02.2019 12:00 2,9 C 4,8 C 0,3 C 78 % 1027,1 hPa 0,2 l/m 2,7 km/h (1 Bft) S-SW 202 9,70 min 1,549 mm 1,2 UV-I 284 W/m -0,9 C 2,9 C 3,9 km/h (1 Bft) 96,44 %
18.02.2019 12:00 2,5 C 5,0 C 0,2 C 81 % 1022,1 hPa 0,0 l/m 2,8 km/h (1 Bft) S-SW 202 9,63 min 1,448 mm 1,1 UV-I 283 W/m -0,6 C 2,5 C 4,1 km/h (1 Bft) 96,90 %
19.02.2019 12:00 4,7 C 5,0 C 3,5 C 76 % 1020,4 hPa 0,0 l/m 4,8 km/h (1 Bft) S-SW 202 9,87 min 1,575 mm 1,1 UV-I 273 W/m 0,5 C 4,4 C 7,1 km/h (2 Bft) 96,71 %
20.02.2019 12:00 5,7 C 5,6 C 5,4 C 87 % 1024,0 hPa 0,2 l/m 5,3 km/h (1 Bft) SW 225 4,00 min 1,041 mm 0,8 UV-I 184 W/m 3,7 C 5,1 C 8,2 km/h (2 Bft) 96,68 %
21.02.2019 12:00 6,8 C 5,6 C 7,0 C 83 % 1027,0 hPa 0,0 l/m 6,2 km/h (2 Bft) S-SW 202 3,47 min 1,143 mm 0,9 UV-I 176 W/m 3,9 C 5,8 C 9,8 km/h (2 Bft) 95,80 %
22.02.2019 12:00 6,3 C 5,6 C 5,7 C 86 % 1030,4 hPa 2,4 l/m 11,7 km/h (2 Bft) W 270 0,30 min 0,813 mm 0,6 UV-I 90 W/m 4,1 C 2,7 C 18,1 km/h (3 Bft) 96,42 %
23.02.2019 12:00 -0,8 C 5,9 C -1,2 C 61 % 1041,0 hPa 0,0 l/m 11,2 km/h (2 Bft) O-NO 68 10,08 min 2,007 mm 1,1 UV-I 310 W/m -7,9 C -5,1 C 16,0 km/h (3 Bft) 97,38 %
24.02.2019 12:00 -0,5 C 5,6 C -0,1 C 63 % 1039,8 hPa 0,0 l/m 4,1 km/h (1 Bft) O-NO 68 3,72 min 0,914 mm 1,0 UV-I 175 W/m -6,9 C -0,8 C 6,5 km/h (2 Bft) 95,78 %
25.02.2019 12:00 5,1 C 5,6 C 5,2 C 72 % 1037,5 hPa 0,0 l/m 4,0 km/h (1 Bft) SW 225 4,50 min 1,295 mm 1,1 UV-I 205 W/m 0,4 C 4,9 C 6,1 km/h (2 Bft) 97,28 %
26.02.2019 12:00 7,2 C 5,6 C 6,6 C 76 % 1032,2 hPa 0,0 l/m 6,5 km/h (2 Bft) W 270 5,57 min 1,626 mm 1,0 UV-I 221 W/m 2,8 C 6,3 C 10,3 km/h (2 Bft) 97,28 %
27.02.2019 12:00 7,3 C 5,9 C 6,3 C 70 % 1026,7 hPa 0,0 l/m 4,6 km/h (1 Bft) S-SW 202 10,40 min 2,057 mm 1,3 UV-I 309 W/m 1,9 C 7,2 C 6,6 km/h (2 Bft) 97,13 %
28.02.2019 12:00 9,9 C 6,1 C 9,8 C 59 % 1015,8 hPa 0,0 l/m 12,1 km/h (2 Bft) W 270 10,13 min 3,505 mm 1,3 UV-I 310 W/m 1,5 C 7,3 C 18,6 km/h (3 Bft) 97,02 %
01.03.2019 12:00 8,0 C 6,1 C 7,6 C 82 % 1012,9 hPa 3,0 l/m 18,1 km/h (3 Bft) W-SW 248 0,37 min 1,346 mm 0,7 UV-I 104 W/m 4,9 C 1,5 C 27,5 km/h (4 Bft) 97,09 %
02.03.2019 12:00 6,5 C 6,1 C 6,0 C 87 % 1016,4 hPa 0,8 l/m 12,5 km/h (3 Bft) W-SW 248 0,00 min 0,813 mm 0,6 UV-I 68 W/m 4,5 C 2,5 C 19,3 km/h (3 Bft) 97,15 %
03.03.2019 12:00 9,3 C 6,5 C 9,6 C 71 % 1014,4 hPa 0,0 l/m 13,1 km/h (3 Bft) SW 225 5,78 min 2,388 mm 1,2 UV-I 268 W/m 4,0 C 5,5 C 19,6 km/h (3 Bft) 97,33 %
04.03.2019 12:00 8,5 C 6,7 C 8,6 C 66 % 1003,5 hPa 0,6 l/m 11,8 km/h (2 Bft) W-SW 248 5,47 min 2,362 mm 1,1 UV-I 242 W/m 2,4 C 5,4 C 18,7 km/h (3 Bft) 97,13 %
05.03.2019 12:00 6,8 C 6,7 C 6,5 C 70 % 1010,4 hPa 4,8 l/m 19,2 km/h (3 Bft) W 270 1,50 min 2,108 mm 0,8 UV-I 152 W/m 1,5 C -0,3 C 30,1 km/h (5 Bft) 97,05 %
06.03.2019 12:00 7,0 C 7,0 C 7,2 C 82 % 1010,8 hPa 0,0 l/m 9,8 km/h (2 Bft) O-NO 68 8,75 min 2,057 mm 1,2 UV-I 299 W/m 4,0 C 4,4 C 14,1 km/h (3 Bft) 96,77 %
07.03.2019 12:00 6,9 C 7,2 C 7,1 C 80 % 1004,9 hPa 2,4 l/m 10,0 km/h (2 Bft) S-SW 202 3,30 min 1,651 mm 1,3 UV-I 202 W/m 3,5 C 4,1 C 15,9 km/h (3 Bft) 97,03 %
08.03.2019 12:00 8,5 C 7,2 C 8,5 C 66 % 1014,9 hPa 0,0 l/m 14,7 km/h (3 Bft) SW 225 2,03 min 2,464 mm 1,0 UV-I 176 W/m 2,3 C 4,0 C 22,7 km/h (4 Bft) 97,20 %
09.03.2019 12:00 7,6 C 7,2 C 6,9 C 74 % 1016,8 hPa 1,6 l/m 15,1 km/h (3 Bft) W 270 0,40 min 1,524 mm 1,0 UV-I 116 W/m 3,2 C 3,3 C 23,4 km/h (4 Bft) 97,30 %
10.03.2019 12:00 10,2 C 7,2 C 9,3 C 74 % 1010,5 hPa 8,2 l/m 20,1 km/h (4 Bft) W 270 1,12 min 1,930 mm 0,6 UV-I 92 W/m 5,6 C 4,3 C 31,9 km/h (5 Bft) 97,33 %
11.03.2019 12:00 4,0 C 7,2 C 3,9 C 72 % 1016,9 hPa 0,8 l/m 22,0 km/h (4 Bft) W 270 3,97 min 2,159 mm 0,6 UV-I 179 W/m -0,7 C -4,9 C 34,0 km/h (5 Bft) 97,45 %
12.03.2019 12:00 3,5 C 7,2 C 3,0 C 73 % 1021,1 hPa 2,4 l/m 13,6 km/h (3 Bft) W 270 4,20 min 1,600 mm 0,9 UV-I 185 W/m -1,0 C -1,6 C 20,7 km/h (4 Bft) 97,32 %
13.03.2019 12:00 4,8 C 7,2 C 4,9 C 73 % 1011,5 hPa 0,0 l/m 13,1 km/h (3 Bft) W-SW 248 2,15 min 1,600 mm 0,9 UV-I 163 W/m 0,2 C 0,3 C 20,1 km/h (4 Bft) 97,37 %
14.03.2019 12:00 5,1 C 7,2 C 5,4 C 81 % 1008,6 hPa 8,0 l/m 19,0 km/h (3 Bft) W-SW 248 2,60 min 1,854 mm 0,9 UV-I 201 W/m 2,1 C -2,1 C 29,4 km/h (5 Bft) 97,29 %
15.03.2019 12:00 6,9 C 7,2 C 6,5 C 86 % 1008,0 hPa 12,8 l/m 22,4 km/h (4 Bft) W-SW 248 0,60 min 1,270 mm 0,7 UV-I 119 W/m 4,7 C -1,4 C 34,3 km/h (5 Bft) 97,15 %
16.03.2019 12:00 11,3 C 7,2 C 10,6 C 71 % 1010,1 hPa 0,0 l/m 21,1 km/h (4 Bft) W 270 0,73 min 2,591 mm 0,8 UV-I 130 W/m 6,1 C 5,7 C 33,6 km/h (5 Bft) 97,14 %
17.03.2019 12:00 9,2 C 7,2 C 9,9 C 70 % 1006,8 hPa 0,8 l/m 8,2 km/h (2 Bft) W 270 11,17 min 3,099 mm 1,6 UV-I 368 W/m 3,1 C 7,5 C 13,5 km/h (3 Bft) 95,37 %
18.03.2019 12:00 4,2 C 7,2 C 4,0 C 80 % 1017,6 hPa 0,4 l/m 15,6 km/h (3 Bft) W-SW 248 1,53 min 1,422 mm 0,7 UV-I 138 W/m 1,1 C -2,0 C 23,4 km/h (4 Bft) 97,21 %
19.03.2019 12:00 3,9 C 7,2 C 4,7 C 79 % 1026,3 hPa 0,2 l/m 6,6 km/h (2 Bft) W-SW 248 4,23 min 1,473 mm 1,1 UV-I 225 W/m 0,4 C 2,7 C 10,5 km/h (2 Bft) 97,32 %
20.03.2019 12:00 4,2 C 7,2 C 5,1 C 67 % 1033,6 hPa 0,0 l/m 3,7 km/h (1 Bft) S-SW 202 7,57 min 1,930 mm 1,3 UV-I 297 W/m -1,9 C 4,1 C 5,7 km/h (1 Bft) 97,33 %
21.03.2019 12:00 5,2 C 7,2 C 5,6 C 65 % 1033,8 hPa 0,0 l/m 8,4 km/h (2 Bft) O-NO 68 11,87 min 3,175 mm 1,7 UV-I 389 W/m -1,4 C 3,1 C 12,1 km/h (2 Bft) 97,17 %
22.03.2019 12:00 8,7 C 7,5 C 8,0 C 65 % 1029,4 hPa 0,0 l/m 9,2 km/h (2 Bft) O 90 11,90 min 3,556 mm 1,7 UV-I 372 W/m 2,0 C 6,8 C 13,0 km/h (3 Bft) 97,58 %
23.03.2019 12:00 9,7 C 7,8 C 10,5 C 70 % 1026,2 hPa 0,0 l/m 3,9 km/h (1 Bft) S-SW 202 12,00 min 2,921 mm 1,8 UV-I 386 W/m 3,9 C 9,6 C 5,9 km/h (2 Bft) 97,30 %
24.03.2019 12:00 10,4 C 7,8 C 11,8 C 70 % 1020,7 hPa 0,0 l/m 4,1 km/h (1 Bft) S-SW 202 11,80 min 2,921 mm 2,0 UV-I 382 W/m 4,7 C 10,3 C 6,6 km/h (2 Bft) 97,65 %
25.03.2019 12:00 7,1 C 8,3 C 7,6 C 75 % 1017,1 hPa 1,6 l/m 14,0 km/h (3 Bft) W 270 3,43 min 2,159 mm 1,2 UV-I 201 W/m 2,7 C 2,5 C 22,7 km/h (4 Bft) 97,33 %
26.03.2019 12:00 4,7 C 8,3 C 5,4 C 73 % 1026,2 hPa 0,0 l/m 12,5 km/h (3 Bft) W 270 2,97 min 1,727 mm 1,0 UV-I 198 W/m 0,0 C 0,4 C 19,2 km/h (3 Bft) 97,15 %
27.03.2019 12:00 4,8 C 7,9 C 5,1 C 84 % 1030,4 hPa 2,6 l/m 7,7 km/h (2 Bft) W 270 0,20 min 0,889 mm 0,8 UV-I 112 W/m 2,3 C 3,2 C 12,2 km/h (2 Bft) 97,58 %
28.03.2019 12:00 8,1 C 7,8 C 10,0 C 75 % 1032,0 hPa 0,0 l/m 4,2 km/h (1 Bft) SW 225 5,00 min 1,905 mm 1,4 UV-I 265 W/m 3,7 C 7,9 C 6,8 km/h (2 Bft) 97,42 %
29.03.2019 12:00 8,7 C 8,0 C 9,4 C 77 % 1029,9 hPa 0,2 l/m 9,4 km/h (2 Bft) O-NO 68 9,63 min 3,175 mm 1,7 UV-I 385 W/m 4,5 C 6,4 C 13,4 km/h (3 Bft) 97,16 %
30.03.2019 12:00 8,3 C 8,3 C 9,8 C 73 % 1023,5 hPa 0,0 l/m 3,6 km/h (1 Bft) O-SO 112 12,33 min 2,896 mm 1,9 UV-I 401 W/m 3,2 C 8,2 C 5,5 km/h (1 Bft) 97,38 %
31.03.2019 12:00 10,5 C 8,3 C 12,0 C 68 % 1019,2 hPa 0,0 l/m 4,3 km/h (1 Bft) S-SW 202 12,40 min 3,150 mm 1,9 UV-I 405 W/m 4,0 C 10,3 C 6,7 km/h (2 Bft) 97,21 %
01.04.2019 12:00 10,2 C 8,8 C 11,3 C 62 % 1017,9 hPa 0,0 l/m 22,0 km/h (4 Bft) O-NO 68 10,93 min 4,699 mm 1,7 UV-I 387 W/m 3,1 C 3,8 C 30,8 km/h (5 Bft) 97,15 %
02.04.2019 12:00 10,3 C 9,4 C 12,0 C 58 % 1011,6 hPa 0,0 l/m 9,0 km/h (2 Bft) O 90 11,43 min 3,480 mm 1,9 UV-I 367 W/m 2,3 C 8,2 C 13,5 km/h (3 Bft) 97,28 %
03.04.2019 12:00 12,1 C 10,6 C 12,3 C 59 % 1002,3 hPa 0,0 l/m 7,1 km/h (2 Bft) S-SO 158 9,47 min 3,581 mm 1,5 UV-I 333 W/m 3,3 C 11,2 C 11,2 km/h (2 Bft) 97,18 %
04.04.2019 12:00 12,7 C 11,3 C 13,0 C 54 % 996,4 hPa 0,0 l/m 12,2 km/h (2 Bft) SO 135 10,57 min 4,572 mm 1,8 UV-I 361 W/m 3,0 C 10,2 C 19,1 km/h (3 Bft) 97,05 %
05.04.2019 12:00 8,6 C 11,5 C 10,1 C 77 % 1002,4 hPa 0,0 l/m 7,5 km/h (2 Bft) W 270 2,20 min 1,676 mm 1,3 UV-I 191 W/m 4,7 C 7,3 C 11,7 km/h (2 Bft) 97,22 %
06.04.2019 12:00 10,3 C 11,8 C 13,2 C 74 % 1003,4 hPa 0,0 l/m 12,6 km/h (3 Bft) O 90 11,20 min 3,988 mm 2,1 UV-I 420 W/m 5,4 C 7,1 C 18,1 km/h (3 Bft) 97,36 %
07.04.2019 12:00 9,8 C 10,7 C 11,4 C 75 % 1002,9 hPa 0,0 l/m 7,5 km/h (2 Bft) O-NO 68 10,90 min 2,972 mm 1,7 UV-I 360 W/m 5,3 C 8,3 C 11,4 km/h (2 Bft) 97,54 %
08.04.2019 12:00 9,9 C 9,1 C 10,6 C 83 % 1007,4 hPa 0,0 l/m 10,2 km/h (2 Bft) SW 225 3,88 min 1,575 mm 1,1 UV-I 178 W/m 7,1 C 7,6 C 15,4 km/h (3 Bft) 97,56 %
09.04.2019 12:00 12,5 C 0,0 C 14,5 C 72 % 1007,4 hPa 0,0 l/m 4,7 km/h (1 Bft) W-SW 248 8,67 min 2,819 mm 1,7 UV-I 338 W/m 7,2 C 12,4 C 7,5 km/h (2 Bft) 97,47 %
10.04.2019 12:00 9,0 C 0,0 C 9,7 C 81 % 1008,2 hPa 0,8 l/m 10,4 km/h (2 Bft) O-NO 68 0,00 min 1,524 mm 1,0 UV-I 158 W/m 5,9 C 6,4 C 15,2 km/h (3 Bft) 97,15 %
11.04.2019 12:00 7,1 C 0,0 C 8,1 C 82 % 1015,0 hPa 0,6 l/m 6,8 km/h (2 Bft) NO 45 0,30 min 0,965 mm 0,9 UV-I 132 W/m 4,1 C 6,0 C 10,5 km/h (2 Bft) 97,08 %
12.04.2019 12:00 5,8 C 0,0 C 9,0 C 64 % 1018,5 hPa 0,0 l/m 9,7 km/h (2 Bft) NO 45 7,63 min 2,870 mm 1,8 UV-I 353 W/m -0,6 C 3,1 C 14,6 km/h (3 Bft) 96,84 %
13.04.2019 12:00 6,7 C 0,0 C 9,7 C 61 % 1017,7 hPa 0,0 l/m 9,3 km/h (2 Bft) O-NO 68 6,77 min 2,997 mm 1,8 UV-I 334 W/m -0,7 C 4,6 C 14,0 km/h (3 Bft) 97,02 %
14.04.2019 12:00 5,8 C 0,0 C 7,8 C 81 % 1017,6 hPa 1,8 l/m 10,1 km/h (2 Bft) O-NO 68 3,00 min 1,880 mm 1,2 UV-I 230 W/m 2,7 C 2,8 C 14,6 km/h (3 Bft) 97,06 %
15.04.2019 12:00 8,8 C 0,0 C 11,7 C 72 % 1021,5 hPa 0,6 l/m 4,5 km/h (1 Bft) SW 225 10,90 min 3,048 mm 1,6 UV-I 394 W/m 3,3 C 8,6 C 7,3 km/h (2 Bft) 97,15 %
16.04.2019 12:00 10,2 C 0,0 C 13,2 C 53 % 1017,9 hPa 0,0 l/m 11,9 km/h (2 Bft) O-NO 68 12,70 min 4,623 mm 1,9 UV-I 448 W/m 0,8 C 6,9 C 17,3 km/h (3 Bft) 97,34 %
17.04.2019 12:00 11,1 C 8,0 C 13,6 C 52 % 1021,8 hPa 0,0 l/m 8,4 km/h (2 Bft) O 90 13,10 min 4,521 mm 2,0 UV-I 452 W/m 0,9 C 9,7 C 12,7 km/h (3 Bft) 97,00 %
18.04.2019 12:00 12,5 C 11,8 C 14,3 C 60 % 1024,0 hPa 0,0 l/m 19,3 km/h (3 Bft) O-NO 68 13,30 min 6,020 mm 2,1 UV-I 452 W/m 4,4 C 7,9 C 27,2 km/h (4 Bft) 97,42 %
19.04.2019 12:00 14,6 C 12,9 C 16,2 C 51 % 1026,7 hPa 0,0 l/m 13,3 km/h (3 Bft) O 90 13,37 min 5,918 mm 2,6 UV-I 461 W/m 3,9 C 11,8 C 19,0 km/h (3 Bft) 97,33 %
20.04.2019 12:00 14,9 C 14,0 C 16,3 C 41 % 1025,5 hPa 0,0 l/m 9,7 km/h (2 Bft) O 90 13,43 min 5,791 mm 2,4 UV-I 471 W/m 0,3 C 13,4 C 14,3 km/h (3 Bft) 97,27 %
21.04.2019 12:00 13,5 C 14,8 C 15,4 C 46 % 1019,3 hPa 0,0 l/m 9,8 km/h (2 Bft) O-NO 68 13,43 min 5,766 mm 2,6 UV-I 466 W/m 1,0 C 11,9 C 13,9 km/h (3 Bft) 97,44 %
22.04.2019 12:00 14,3 C 15,2 C 16,0 C 48 % 1009,5 hPa 0,0 l/m 16,6 km/h (3 Bft) O-NO 68 13,30 min 6,426 mm 2,5 UV-I 451 W/m 2,9 C 11,0 C 23,8 km/h (4 Bft) 97,10 %
23.04.2019 12:00 13,1 C 13,7 C 14,2 C 65 % 1002,4 hPa 0,0 l/m 24,8 km/h (4 Bft) O 90 4,07 min 4,420 mm 1,5 UV-I 268 W/m 6,6 C 6,2 C 35,7 km/h (5 Bft) 97,05 %
24.04.2019 12:00 16,6 C 14,1 C 19,3 C 60 % 1004,6 hPa 0,0 l/m 10,5 km/h (2 Bft) O-NO 68 10,77 min 5,207 mm 2,4 UV-I 437 W/m 7,7 C 14,7 C 15,6 km/h (3 Bft) 97,18 %
25.04.2019 12:00 18,4 C 15,8 C 20,7 C 51 % 1008,9 hPa 0,0 l/m 8,0 km/h (2 Bft) O-NO 68 12,43 min 5,486 mm 2,3 UV-I 442 W/m 7,3 C 17,7 C 12,0 km/h (2 Bft) 97,08 %
26.04.2019 12:00 13,5 C 16,2 C 13,7 C 65 % 1009,5 hPa 0,0 l/m 11,9 km/h (2 Bft) W 270 1,80 min 2,845 mm 1,4 UV-I 206 W/m 6,8 C 10,6 C 18,8 km/h (3 Bft) 97,19 %
27.04.2019 12:00 10,1 C 14,7 C 11,7 C 74 % 1015,6 hPa 0,4 l/m 12,0 km/h (2 Bft) W-SW 248 4,55 min 2,489 mm 1,2 UV-I 245 W/m 5,5 C 6,7 C 18,6 km/h (3 Bft) 97,16 %
28.04.2019 12:00 8,8 C 14,2 C 10,9 C 69 % 1018,0 hPa 0,8 l/m 10,6 km/h (2 Bft) W 270 4,88 min 2,515 mm 1,4 UV-I 250 W/m 3,2 C 6,0 C 16,8 km/h (3 Bft) 97,47 %
29.04.2019 12:00 7,2 C 13,3 C 7,4 C 85 % 1017,2 hPa 4,0 l/m 12,5 km/h (3 Bft) W-SW 248 0,03 min 1,118 mm 0,7 UV-I 108 W/m 4,9 C 3,3 C 19,2 km/h (3 Bft) 97,47 %
30.04.2019 12:00 7,3 C 11,9 C 7,4 C 94 % 1015,0 hPa 31,8 l/m 17,6 km/h (3 Bft) W-SW 248 1,30 min 0,813 mm 0,6 UV-I 83 W/m 6,3 C 0,9 C 26,5 km/h (4 Bft) 97,32 %
01.05.2019 12:00 11,5 C 11,9 C 13,8 C 73 % 1014,3 hPa 0,0 l/m 10,2 km/h (2 Bft) W 270 8,68 min 3,708 mm 2,0 UV-I 383 W/m 6,3 C 9,2 C 15,9 km/h (3 Bft) 97,48 %
02.05.2019 12:00 13,6 C 12,5 C 17,5 C 66 % 1008,2 hPa 0,0 l/m 5,1 km/h (1 Bft) S-SW 202 12,23 min 4,394 mm 2,5 UV-I 459 W/m 6,5 C 13,4 C 8,3 km/h (2 Bft) 97,49 %
03.05.2019 12:00 10,4 C 14,2 C 11,2 C 87 % 1007,8 hPa 6,6 l/m 13,5 km/h (3 Bft) W-SW 248 1,07 min 1,702 mm 1,5 UV-I 157 W/m 8,2 C 6,5 C 20,9 km/h (4 Bft) 97,41 %
04.05.2019 12:00 9,1 C 14,0 C 10,7 C 87 % 1005,3 hPa 5,4 l/m 5,4 km/h (1 Bft) SW 225 0,67 min 1,397 mm 1,5 UV-I 167 W/m 7,0 C 8,4 C 9,1 km/h (2 Bft) 97,30 %
05.05.2019 12:00 4,0 C 12,9 C 4,9 C 91 % 1013,0 hPa 8,6 l/m 9,0 km/h (2 Bft) W-SW 248 0,20 min 0,914 mm 0,9 UV-I 137 W/m 2,7 C 1,5 C 14,5 km/h (3 Bft) 97,45 %
06.05.2019 12:00 6,5 C 12,2 C 8,4 C 75 % 1017,5 hPa 1,4 l/m 9,9 km/h (2 Bft) W-SW 248 3,53 min 2,235 mm 1,4 UV-I 247 W/m 2,0 C 3,8 C 16,0 km/h (3 Bft) 97,30 %
07.05.2019 12:00 8,7 C 12,2 C 11,7 C 64 % 1017,9 hPa 0,0 l/m 7,0 km/h (2 Bft) W-SW 248 10,02 min 3,200 mm 1,7 UV-I 368 W/m 1,9 C 7,6 C 11,1 km/h (2 Bft) 97,36 %
08.05.2019 12:00 10,5 C 12,9 C 12,9 C 73 % 1008,0 hPa 0,0 l/m 6,8 km/h (2 Bft) O-NO 68 9,77 min 3,429 mm 2,1 UV-I 368 W/m 5,5 C 9,5 C 10,5 km/h (2 Bft) 97,19 %
09.05.2019 12:00 11,8 C 13,9 C 14,7 C 78 % 1002,9 hPa 11,6 l/m 9,0 km/h (2 Bft) SW 225 6,80 min 2,794 mm 1,9 UV-I 318 W/m 7,9 C 9,9 C 14,4 km/h (3 Bft) 97,56 %
10.05.2019 12:00 12,5 C 14,5 C 14,7 C 75 % 1009,9 hPa 0,4 l/m 11,3 km/h (2 Bft) W-SW 248 7,83 min 3,378 mm 1,7 UV-I 322 W/m 8,1 C 9,8 C 17,6 km/h (3 Bft) 97,35 %
11.05.2019 12:00 11,1 C 14,9 C 13,4 C 85 % 1011,8 hPa 10,8 l/m 7,0 km/h (2 Bft) SW 225 5,93 min 2,388 mm 2,2 UV-I 263 W/m 8,5 C 9,7 C 11,2 km/h (2 Bft) 97,37 %
12.05.2019 12:00 7,8 C 14,2 C 8,5 C 94 % 1022,6 hPa 19,6 l/m 9,4 km/h (2 Bft) W-SW 248 0,00 min 0,787 mm 0,9 UV-I 104 W/m 6,9 C 5,4 C 14,8 km/h (3 Bft) 97,07 %
13.05.2019 12:00 9,1 C 13,5 C 11,9 C 79 % 1030,8 hPa 0,8 l/m 6,7 km/h (2 Bft) SW 225 4,73 min 1,956 mm 1,7 UV-I 227 W/m 5,4 C 8,1 C 11,0 km/h (2 Bft) 97,05 %
14.05.2019 12:00 7,8 C 13,8 C 10,7 C 74 % 1025,6 hPa 0,4 l/m 7,4 km/h (2 Bft) SW 225 7,30 min 2,845 mm 1,6 UV-I 311 W/m 3,0 C 6,2 C 11,3 km/h (2 Bft) 97,34 %
15.05.2019 12:00 6,1 C 13,4 C 7,1 C 91 % 1020,1 hPa 2,6 l/m 5,6 km/h (1 Bft) W 270 0,00 min 0,762 mm 0,9 UV-I 102 W/m 4,7 C 5,2 C 9,3 km/h (2 Bft) 97,33 %
16.05.2019 12:00 8,2 C 12,9 C 10,9 C 86 % 1014,4 hPa 0,8 l/m 3,4 km/h (1 Bft) W 270 1,43 min 1,448 mm 1,5 UV-I 187 W/m 6,0 C 8,1 C 5,6 km/h (1 Bft) 97,44 %
17.05.2019 12:00 12,8 C 13,9 C 17,4 C 76 % 1007,4 hPa 0,0 l/m 13,8 km/h (3 Bft) O-NO 68 11,73 min 4,521 mm 2,7 UV-I 418 W/m 8,4 C 9,6 C 20,0 km/h (4 Bft) 97,45 %
18.05.2019 12:00 14,9 C 15,4 C 18,8 C 67 % 1004,0 hPa 0,0 l/m 8,3 km/h (2 Bft) O-NO 68 12,92 min 4,445 mm 2,7 UV-I 407 W/m 8,2 C 13,7 C 12,7 km/h (3 Bft) 97,44 %
19.05.2019 12:00 15,8 C 16,9 C 19,3 C 71 % 1000,9 hPa 0,0 l/m 8,2 km/h (2 Bft) O-NO 68 10,93 min 4,724 mm 2,9 UV-I 414 W/m 10,1 C 14,8 C 12,4 km/h (3 Bft) 97,38 %
20.05.2019 12:00 12,9 C 17,3 C 13,4 C 90 % 1000,1 hPa 6,8 l/m 4,3 km/h (1 Bft) SW 225 1,07 min 1,016 mm 0,9 UV-I 113 W/m 11,4 C 12,7 C 7,1 km/h (2 Bft) 97,46 %
21.05.2019 12:00 11,8 C 16,3 C 11,9 C 88 % 1005,4 hPa 10,0 l/m 18,3 km/h (3 Bft) W-SW 248 0,60 min 1,676 mm 1,0 UV-I 142 W/m 9,9 C 6,8 C 28,7 km/h (4 Bft) 97,32 %
22.05.2019 12:00 12,1 C 15,1 C 12,4 C 91 % 1013,8 hPa 9,2 l/m 17,2 km/h (3 Bft) W-SW 248 0,07 min 1,118 mm 0,8 UV-I 92 W/m 10,7 C 7,0 C 26,4 km/h (4 Bft) 97,20 %
23.05.2019 12:00 13,8 C 15,2 C 16,9 C 73 % 1017,2 hPa 0,0 l/m 8,6 km/h (2 Bft) W 270 8,57 min 3,835 mm 2,4 UV-I 363 W/m 8,6 C 12,3 C 14,0 km/h (3 Bft) 96,98 %
24.05.2019 12:00 14,8 C 16,7 C 20,0 C 68 % 1013,8 hPa 0,0 l/m 3,7 km/h (1 Bft) S-SW 202 14,75 min 4,801 mm 2,9 UV-I 484 W/m 8,4 C 14,8 C 6,0 km/h (2 Bft) 97,17 %
25.05.2019 12:00 17,0 C 18,3 C 21,5 C 67 % 1012,4 hPa 0,0 l/m 5,0 km/h (1 Bft) S-SW 202 11,63 min 4,724 mm 2,6 UV-I 447 W/m 10,4 C 16,7 C 7,9 km/h (2 Bft) 97,19 %
26.05.2019 12:00 17,6 C 19,8 C 22,7 C 72 % 1013,4 hPa 0,0 l/m 7,1 km/h (2 Bft) W-SW 248 12,97 min 4,978 mm 2,7 UV-I 475 W/m 12,2 C 16,6 C 11,7 km/h (2 Bft) 97,19 %
27.05.2019 12:00 16,6 C 20,5 C 18,8 C 84 % 1008,3 hPa 5,4 l/m 2,8 km/h (1 Bft) S-SW 202 3,97 min 2,108 mm 1,6 UV-I 216 W/m 13,7 C 16,5 C 4,6 km/h (1 Bft) 96,90 %
28.05.2019 12:00 13,5 C 19,6 C 14,3 C 95 % 1004,8 hPa 19,2 l/m 10,0 km/h (2 Bft) W 270 0,43 min 1,092 mm 0,8 UV-I 127 W/m 12,7 C 11,3 C 15,8 km/h (3 Bft) 97,29 %
29.05.2019 12:00 10,5 C 17,7 C 11,4 C 96 % 1015,9 hPa 26,0 l/m 8,0 km/h (2 Bft) W-SW 248 0,00 min 0,660 mm 0,6 UV-I 84 W/m 9,9 C 9,0 C 12,8 km/h (3 Bft) 97,43 %
30.05.2019 12:00 12,8 C 17,1 C 15,4 C 83 % 1024,2 hPa 0,4 l/m 10,3 km/h (2 Bft) W-SW 248 1,53 min 2,083 mm 1,3 UV-I 179 W/m 9,7 C 10,8 C 16,1 km/h (3 Bft) 97,57 %
31.05.2019 12:00 14,9 C 17,4 C 18,0 C 76 % 1024,5 hPa 0,0 l/m 8,1 km/h (2 Bft) W-SW 248 3,27 min 2,845 mm 1,8 UV-I 244 W/m 10,4 C 13,8 C 13,2 km/h (3 Bft) 97,38 %
01.06.2019 12:00 18,3 C 18,6 C 21,8 C 74 % 1021,4 hPa 0,0 l/m 4,5 km/h (1 Bft) SW 225 3,15 min 2,718 mm 1,9 UV-I 236 W/m 13,4 C 18,3 C 7,3 km/h (2 Bft) 97,45 %
02.06.2019 12:00 20,3 C 20,4 C 25,2 C 69 % 1017,3 hPa 0,0 l/m 5,1 km/h (1 Bft) S-SW 202 14,60 min 4,699 mm 2,2 UV-I 391 W/m 13,8 C 20,2 C 8,1 km/h (2 Bft) 97,28 %
03.06.2019 12:00 21,0 C 22,0 C 25,4 C 63 % 1013,7 hPa 0,0 l/m 5,2 km/h (1 Bft) O 90 15,37 min 6,147 mm 3,4 UV-I 513 W/m 12,7 C 20,9 C 8,3 km/h (2 Bft) 97,50 %
04.06.2019 12:00 22,2 C 23,4 C 27,1 C 64 % 1010,8 hPa 0,0 l/m 5,8 km/h (2 Bft) O 90 14,92 min 5,944 mm 3,4 UV-I 501 W/m 14,6 C 21,9 C 9,1 km/h (2 Bft) 97,17 %
05.06.2019 12:00 21,9 C 24,3 C 26,1 C 64 % 1005,8 hPa 0,0 l/m 8,6 km/h (2 Bft) O 90 14,70 min 6,807 mm 3,3 UV-I 509 W/m 14,1 C 21,3 C 12,7 km/h (3 Bft) 97,11 %
06.06.2019 12:00 20,0 C 24,2 C 22,6 C 76 % 1006,7 hPa 2,2 l/m 8,8 km/h (2 Bft) W 270 8,83 min 4,496 mm 3,1 UV-I 382 W/m 15,3 C 19,0 C 14,4 km/h (3 Bft) 96,98 %
07.06.2019 12:00 19,5 C 24,1 C 24,5 C 77 % 1011,5 hPa 0,2 l/m 11,3 km/h (2 Bft) O 90 15,17 min 5,918 mm 3,2 UV-I 500 W/m 15,1 C 18,0 C 16,8 km/h (3 Bft) 97,26 %
08.06.2019 12:00 18,6 C 23,4 C 22,2 C 58 % 1020,5 hPa 0,0 l/m 9,9 km/h (2 Bft) W-SW 248 9,13 min 4,826 mm 2,8 UV-I 366 W/m 9,7 C 17,0 C 15,9 km/h (3 Bft) 97,16 %
09.06.2019 12:00 20,8 C 23,2 C 24,0 C 61 % 1019,4 hPa 0,0 l/m 10,8 km/h (2 Bft) O 90 14,57 min 6,833 mm 3,3 UV-I 490 W/m 12,5 C 19,5 C 15,8 km/h (3 Bft) 97,17 %
10.06.2019 12:00 22,7 C 23,7 C 26,2 C 69 % 1010,8 hPa 0,0 l/m 7,3 km/h (2 Bft) O 90 12,10 min 5,461 mm 2,9 UV-I 426 W/m 16,4 C 22,3 C 11,3 km/h (2 Bft) 97,16 %
11.06.2019 12:00 21,9 C 23,9 C 23,7 C 69 % 1006,9 hPa 0,0 l/m 7,7 km/h (2 Bft) O-SO 112 8,33 min 3,810 mm 1,8 UV-I 282 W/m 15,2 C 21,3 C 12,4 km/h (3 Bft) 97,23 %
12.06.2019 12:00 23,0 C 23,8 C 25,7 C 61 % 1006,1 hPa 0,0 l/m 10,8 km/h (2 Bft) O 90 13,43 min 6,858 mm 3,0 UV-I 446 W/m 14,3 C 22,2 C 16,6 km/h (3 Bft) 97,17 %
13.06.2019 12:00 21,2 C 24,4 C 27,2 C 69 % 1011,4 hPa 0,0 l/m 6,6 km/h (2 Bft) W 270 13,10 min 5,563 mm 3,5 UV-I 494 W/m 15,1 C 20,8 C 11,0 km/h (2 Bft) 97,13 %
14.06.2019 12:00 24,4 C 25,4 C 28,2 C 66 % 1013,6 hPa 0,0 l/m 12,4 km/h (3 Bft) O 90 14,03 min 7,137 mm 3,5 UV-I 491 W/m 17,3 C 23,6 C 18,2 km/h (3 Bft) 97,13 %
15.06.2019 12:00 24,2 C 25,5 C 26,4 C 66 % 1009,6 hPa 0,0 l/m 7,2 km/h (2 Bft) S 180 4,60 min 4,293 mm 3,4 UV-I 299 W/m 17,0 C 23,7 C 11,5 km/h (2 Bft) 97,26 %
16.06.2019 12:00 18,9 C 24,3 C 20,7 C 77 % 1016,8 hPa 0,0 l/m 11,7 km/h (2 Bft) W-SW 248 3,22 min 3,226 mm 1,9 UV-I 240 W/m 14,8 C 16,9 C 19,0 km/h (3 Bft) 97,52 %
17.06.2019 12:00 20,2 C 23,7 C 23,8 C 70 % 1017,8 hPa 0,0 l/m 9,3 km/h (2 Bft) O-NO 68 13,70 min 5,715 mm 2,8 UV-I 447 W/m 14,3 C 19,3 C 13,7 km/h (3 Bft) 97,50 %
18.06.2019 12:00 22,4 C 24,0 C 27,3 C 66 % 1013,2 hPa 0,0 l/m 8,8 km/h (2 Bft) O 90 14,63 min 6,274 mm 3,3 UV-I 499 W/m 15,4 C 21,5 C 13,6 km/h (3 Bft) 97,48 %
19.06.2019 12:00 22,6 C 25,0 C 26,6 C 66 % 1009,8 hPa 0,0 l/m 4,2 km/h (1 Bft) S-SW 202 12,57 min 5,182 mm 2,9 UV-I 431 W/m 15,4 C 22,5 C 7,0 km/h (2 Bft) 97,50 %
20.06.2019 12:00 21,0 C 25,4 C 25,3 C 70 % 1010,7 hPa 2,8 l/m 8,4 km/h (2 Bft) SW 225 11,70 min 5,664 mm 3,4 UV-I 462 W/m 14,6 C 20,1 C 13,3 km/h (3 Bft) 97,49 %
21.06.2019 12:00 20,1 C 25,6 C 25,0 C 75 % 1015,1 hPa 0,4 l/m 4,2 km/h (1 Bft) S-SW 202 12,43 min 4,902 mm 3,2 UV-I 446 W/m 14,9 C 19,9 C 6,7 km/h (2 Bft) 97,18 %
22.06.2019 12:00 20,1 C 25,1 C 22,4 C 80 % 1014,2 hPa 0,0 l/m 10,8 km/h (2 Bft) O-NO 68 4,10 min 3,810 mm 2,2 UV-I 286 W/m 16,3 C 18,7 C 16,3 km/h (3 Bft) 97,06 %
23.06.2019 12:00 19,1 C 24,2 C 22,4 C 88 % 1015,8 hPa 8,6 l/m 5,2 km/h (1 Bft) SW 225 4,83 min 3,124 mm 2,4 UV-I 293 W/m 16,9 C 18,9 C 8,4 km/h (2 Bft) 97,16 %
24.06.2019 12:00 21,6 C 24,8 C 26,5 C 76 % 1019,7 hPa 0,2 l/m 8,1 km/h (2 Bft) O 90 13,43 min 5,944 mm 3,2 UV-I 483 W/m 16,5 C 21,0 C 12,5 km/h (3 Bft) 97,26 %
25.06.2019 12:00 24,7 C 25,5 C 28,7 C 68 % 1018,9 hPa 0,0 l/m 8,7 km/h (2 Bft) O 90 14,38 min 6,553 mm 3,3 UV-I 494 W/m 18,1 C 24,3 C 13,7 km/h (3 Bft) 97,37 %
26.06.2019 12:00 26,7 C 27,0 C 31,0 C 66 % 1019,8 hPa 0,0 l/m 3,7 km/h (1 Bft) S-SW 202 15,53 min 6,045 mm 3,4 UV-I 491 W/m 19,2 C 26,7 C 5,9 km/h (2 Bft) 97,46 %
27.06.2019 12:00 26,8 C 28,1 C 30,3 C 63 % 1017,4 hPa 0,0 l/m 7,6 km/h (2 Bft) SW 225 14,17 min 6,553 mm 3,2 UV-I 459 W/m 18,8 C 26,6 C 12,5 km/h (3 Bft) 97,52 %
28.06.2019 12:00 22,6 C 27,9 C 26,4 C 47 % 1018,8 hPa 0,0 l/m 4,4 km/h (1 Bft) O-SO 112 15,60 min 6,375 mm 3,5 UV-I 510 W/m 10,2 C 22,5 C 7,9 km/h (2 Bft) 97,35 %
29.06.2019 12:00 22,3 C 27,2 C 26,1 C 53 % 1018,6 hPa 0,0 l/m 8,8 km/h (2 Bft) O 90 15,53 min 7,137 mm 3,5 UV-I 507 W/m 11,3 C 21,6 C 13,4 km/h (3 Bft) 97,45 %
30.06.2019 12:00 25,2 C 26,8 C 29,0 C 56 % 1014,8 hPa 0,0 l/m 3,9 km/h (1 Bft) N-NO 22 15,33 min 6,274 mm 3,5 UV-I 497 W/m 15,1 C 25,2 C 6,4 km/h (2 Bft) 97,33 %
_ Min-Zeit 00:00 00:00 00:00 00:00 00:00 - 00:00 - - - - - - 00:00 00:00 00:00 00:00
Minimum _ 24,3 C 27,8 C 22,8 C 71 % 1014,0 hPa - 6,9 km/h (2 Bft) - - - - - - 18,7 C 24,2 C 8,0 km/h (2 Bft) 94,00 %
_ Max-Zeit 00:00 00:00 00:00 00:00 00:00 00:00 00:00 - - 00:00 00:00 00:00 00:00 00:00 00:00 00:00 00:00
Maximum _ 24,3 C 27,8 C 22,8 C 71 % 1014,0 hPa 0,0 l/m 6,9 km/h
S-SW (2 Bft)
- - 0,00 min 0,000 mm 0,0 UV-I 0 W/m 18,7 C 24,2 C 8,0 km/h
SW (2 Bft)
94,00 %
Durchschnitt _ 24,3 C 27,8 C 22,8 C 71 % 1014,0 hPa #3,0 l/m 6,9 km/h (2 Bft) S-SW - #15:20 h #0,000 mm 0,0 UV-I 0 W/m 18,7 C 24,2 C 8,0 km/h (2 Bft) 94,00 %